sensor_id;sensor_type;location;lat;lon;timestamp;temperature;humidity
17893;DHT22;9072;51.918;4.380;2023-12-20T00:02:05;7.00;99.90
17893;DHT22;9072;51.918;4.380;2023-12-20T00:04:36;6.90;99.90
17893;DHT22;9072;51.918;4.380;2023-12-20T00:07:04;6.90;99.90
17893;DHT22;9072;51.918;4.380;2023-12-20T00:09:36;6.80;99.90
17893;DHT22;9072;51.918;4.380;2023-12-20T00:12:04;6.80;99.90
17893;DHT22;9072;51.918;4.380;2023-12-20T00:14:36;6.90;99.90
17893;DHT22;9072;51.918;4.380;2023-12-20T00:17:11;6.90;99.90
17893;DHT22;9072;51.918;4.380;2023-12-20T00:19:54;6.90;99.90
17893;DHT22;9072;51.918;4.380;2023-12-20T00:22:21;6.90;99.90
17893;DHT22;9072;51.918;4.380;2023-12-20T00:24:51;6.80;99.90
17893;DHT22;9072;51.918;4.380;2023-12-20T00:27:20;6.80;99.90
17893;DHT22;9072;51.918;4.380;2023-12-20T00:29:56;6.80;99.90
17893;DHT22;9072;51.918;4.380;2023-12-20T00:32:25;6.80;99.90
17893;DHT22;9072;51.918;4.380;2023-12-20T00:34:56;6.80;99.90
17893;DHT22;9072;51.918;4.380;2023-12-20T00:37:33;6.80;99.90
17893;DHT22;9072;51.918;4.380;2023-12-20T00:40:02;6.80;99.90
17893;DHT22;9072;51.918;4.380;2023-12-20T00:42:57;6.80;99.90
17893;DHT22;9072;51.918;4.380;2023-12-20T00:45:27;6.80;99.90
17893;DHT22;9072;51.918;4.380;2023-12-20T00:47:59;6.90;99.90
17893;DHT22;9072;51.918;4.380;2023-12-20T00:50:26;6.90;99.90
17893;DHT22;9072;51.918;4.380;2023-12-20T00:52:55;6.90;99.90
17893;DHT22;9072;51.918;4.380;2023-12-20T00:55:23;7.00;99.90
17893;DHT22;9072;51.918;4.380;2023-12-20T00:57:54;7.00;99.90
17893;DHT22;9072;51.918;4.380;2023-12-20T01:00:28;7.10;99.90
17893;DHT22;9072;51.918;4.380;2023-12-20T01:02:57;7.10;99.90
17893;DHT22;9072;51.918;4.380;2023-12-20T01:05:32;7.10;99.90
17893;DHT22;9072;51.918;4.380;2023-12-20T01:08:05;7.20;99.90
17893;DHT22;9072;51.918;4.380;2023-12-20T01:10:33;7.20;99.90
17893;DHT22;9072;51.918;4.380;2023-12-20T01:13:06;7.20;99.90
17893;DHT22;9072;51.918;4.380;2023-12-20T01:15:39;7.20;99.90
17893;DHT22;9072;51.918;4.380;2023-12-20T01:18:13;7.20;99.90
17893;DHT22;9072;51.918;4.380;2023-12-20T01:20:44;7.20;99.90
17893;DHT22;9072;51.918;4.380;2023-12-20T01:23:15;7.20;99.90
17893;DHT22;9072;51.918;4.380;2023-12-20T01:25:43;7.30;99.90
17893;DHT22;9072;51.918;4.380;2023-12-20T01:28:13;7.30;99.90
17893;DHT22;9072;51.918;4.380;2023-12-20T01:30:45;7.30;99.90
17893;DHT22;9072;51.918;4.380;2023-12-20T01:33:26;7.30;99.90
17893;DHT22;9072;51.918;4.380;2023-12-20T01:35:56;7.30;99.90
17893;DHT22;9072;51.918;4.380;2023-12-20T01:38:27;7.30;99.90
17893;DHT22;9072;51.918;4.380;2023-12-20T01:40:55;7.30;99.90
17893;DHT22;9072;51.918;4.380;2023-12-20T01:43:23;7.30;99.90
17893;DHT22;9072;51.918;4.380;2023-12-20T01:45:55;7.40;99.90
17893;DHT22;9072;51.918;4.380;2023-12-20T01:48:24;7.40;99.90
17893;DHT22;9072;51.918;4.380;2023-12-20T01:50:54;7.50;99.90
17893;DHT22;9072;51.918;4.380;2023-12-20T01:53:26;7.50;99.90
17893;DHT22;9072;51.918;4.380;2023-12-20T01:55:58;7.50;99.90
17893;DHT22;9072;51.918;4.380;2023-12-20T01:58:28;7.60;99.90
17893;DHT22;9072;51.918;4.380;2023-12-20T02:00:59;7.60;99.90
17893;DHT22;9072;51.918;4.380;2023-12-20T02:03:28;7.60;99.90
17893;DHT22;9072;51.918;4.380;2023-12-20T02:05:57;7.60;99.90
17893;DHT22;9072;51.918;4.380;2023-12-20T02:08:27;7.60;99.90
17893;DHT22;9072;51.918;4.380;2023-12-20T02:10:58;7.50;99.90
17893;DHT22;9072;51.918;4.380;2023-12-20T02:13:25;7.50;99.90
17893;DHT22;9072;51.918;4.380;2023-12-20T02:15:55;7.50;99.90
17893;DHT22;9072;51.918;4.380;2023-12-20T02:18:29;7.50;99.90
17893;DHT22;9072;51.918;4.380;2023-12-20T02:20:56;7.50;99.90
17893;DHT22;9072;51.918;4.380;2023-12-20T02:23:27;7.60;99.90
17893;DHT22;9072;51.918;4.380;2023-12-20T02:26:06;7.60;99.90
17893;DHT22;9072;51.918;4.380;2023-12-20T02:28:34;7.60;99.90
17893;DHT22;9072;51.918;4.380;2023-12-20T02:31:06;7.60;99.90
17893;DHT22;9072;51.918;4.380;2023-12-20T02:33:33;7.50;99.90
17893;DHT22;9072;51.918;4.380;2023-12-20T02:36:02;7.50;99.90
17893;DHT22;9072;51.918;4.380;2023-12-20T02:38:34;7.50;99.90
17893;DHT22;9072;51.918;4.380;2023-12-20T02:41:02;7.50;99.90
17893;DHT22;9072;51.918;4.380;2023-12-20T02:43:30;7.50;99.90
17893;DHT22;9072;51.918;4.380;2023-12-20T02:45:57;7.50;99.90
17893;DHT22;9072;51.918;4.380;2023-12-20T02:48:24;7.50;99.90
17893;DHT22;9072;51.918;4.380;2023-12-20T02:50:53;7.50;99.90
17893;DHT22;9072;51.918;4.380;2023-12-20T02:53:24;7.50;99.90
17893;DHT22;9072;51.918;4.380;2023-12-20T02:56:04;7.50;99.90
17893;DHT22;9072;51.918;4.380;2023-12-20T02:58:43;7.40;99.90
17893;DHT22;9072;51.918;4.380;2023-12-20T03:01:10;7.40;99.90
17893;DHT22;9072;51.918;4.380;2023-12-20T03:03:48;7.50;99.90
17893;DHT22;9072;51.918;4.380;2023-12-20T03:06:18;7.50;99.90
17893;DHT22;9072;51.918;4.380;2023-12-20T03:08:48;7.50;99.90
17893;DHT22;9072;51.918;4.380;2023-12-20T03:11:19;7.50;99.90
17893;DHT22;9072;51.918;4.380;2023-12-20T03:13:47;7.40;99.90
17893;DHT22;9072;51.918;4.380;2023-12-20T03:16:17;7.40;99.90
17893;DHT22;9072;51.918;4.380;2023-12-20T03:18:44;7.30;99.90
17893;DHT22;9072;51.918;4.380;2023-12-20T03:21:12;7.30;99.90
17893;DHT22;9072;51.918;4.380;2023-12-20T03:23:41;7.30;99.90
17893;DHT22;9072;51.918;4.380;2023-12-20T03:26:10;7.30;99.90
17893;DHT22;9072;51.918;4.380;2023-12-20T03:28:42;7.20;99.90
17893;DHT22;9072;51.918;4.380;2023-12-20T03:31:11;7.20;99.90
17893;DHT22;9072;51.918;4.380;2023-12-20T03:33:39;7.20;99.90
17893;DHT22;9072;51.918;4.380;2023-12-20T03:36:09;7.20;99.90
17893;DHT22;9072;51.918;4.380;2023-12-20T03:38:37;7.20;99.90
17893;DHT22;9072;51.918;4.380;2023-12-20T03:41:07;7.20;99.90
17893;DHT22;9072;51.918;4.380;2023-12-20T03:43:46;7.20;99.90
17893;DHT22;9072;51.918;4.380;2023-12-20T03:46:18;7.20;99.90
17893;DHT22;9072;51.918;4.380;2023-12-20T03:48:46;7.20;99.90
17893;DHT22;9072;51.918;4.380;2023-12-20T03:51:16;7.20;99.90
17893;DHT22;9072;51.918;4.380;2023-12-20T03:53:50;7.20;99.90
17893;DHT22;9072;51.918;4.380;2023-12-20T03:56:21;7.20;99.90
17893;DHT22;9072;51.918;4.380;2023-12-20T03:58:52;7.20;99.90
17893;DHT22;9072;51.918;4.380;2023-12-20T04:01:22;7.20;99.90
17893;DHT22;9072;51.918;4.380;2023-12-20T04:03:56;7.20;99.90
17893;DHT22;9072;51.918;4.380;2023-12-20T04:06:26;7.20;99.90
17893;DHT22;9072;51.918;4.380;2023-12-20T04:08:57;7.20;99.90
17893;DHT22;9072;51.918;4.380;2023-12-20T04:11:28;7.20;99.90
17893;DHT22;9072;51.918;4.380;2023-12-20T04:14:03;7.20;99.90
17893;DHT22;9072;51.918;4.380;2023-12-20T04:16:36;7.30;99.90
17893;DHT22;9072;51.918;4.380;2023-12-20T04:19:06;7.30;99.90
17893;DHT22;9072;51.918;4.380;2023-12-20T04:21:50;7.30;99.90
17893;DHT22;9072;51.918;4.380;2023-12-20T04:24:20;7.30;99.90
17893;DHT22;9072;51.918;4.380;2023-12-20T04:26:52;7.30;99.90
17893;DHT22;9072;51.918;4.380;2023-12-20T04:29:30;7.20;99.90
17893;DHT22;9072;51.918;4.380;2023-12-20T04:32:03;7.20;99.90
17893;DHT22;9072;51.918;4.380;2023-12-20T04:37:30;7.20;99.90
17893;DHT22;9072;51.918;4.380;2023-12-20T04:40:01;7.10;99.90
17893;DHT22;9072;51.918;4.380;2023-12-20T04:42:48;7.10;99.90
17893;DHT22;9072;51.918;4.380;2023-12-20T04:49:10;7.00;99.90
17893;DHT22;9072;51.918;4.380;2023-12-20T04:51:58;7.00;99.90
17893;DHT22;9072;51.918;4.380;2023-12-20T05:14:27;7.10;99.90
17893;DHT22;9072;51.918;4.380;2023-12-20T05:16:56;7.10;99.90
17893;DHT22;9072;51.918;4.380;2023-12-20T05:19:33;7.10;99.90
17893;DHT22;9072;51.918;4.380;2023-12-20T05:22:21;7.10;99.90
17893;DHT22;9072;51.918;4.380;2023-12-20T05:24:51;7.10;99.90
17893;DHT22;9072;51.918;4.380;2023-12-20T05:27:24;7.20;99.90
17893;DHT22;9072;51.918;4.380;2023-12-20T05:29:59;7.20;99.90
17893;DHT22;9072;51.918;4.380;2023-12-20T05:32:30;7.10;99.90
17893;DHT22;9072;51.918;4.380;2023-12-20T05:35:15;7.10;99.90
17893;DHT22;9072;51.918;4.380;2023-12-20T05:37:48;7.10;99.90
17893;DHT22;9072;51.918;4.380;2023-12-20T05:40:18;7.10;99.90
17893;DHT22;9072;51.918;4.380;2023-12-20T05:42:48;7.10;99.90
17893;DHT22;9072;51.918;4.380;2023-12-20T05:45:19;7.20;99.90
17893;DHT22;9072;51.918;4.380;2023-12-20T05:47:50;7.20;99.90
17893;DHT22;9072;51.918;4.380;2023-12-20T05:50:21;7.20;99.90
17893;DHT22;9072;51.918;4.380;2023-12-20T05:52:51;7.20;99.90
17893;DHT22;9072;51.918;4.380;2023-12-20T05:55:22;7.20;99.90
17893;DHT22;9072;51.918;4.380;2023-12-20T05:57:54;7.10;99.90
17893;DHT22;9072;51.918;4.380;2023-12-20T06:00:28;7.10;99.90
17893;DHT22;9072;51.918;4.380;2023-12-20T06:03:13;7.20;99.90
17893;DHT22;9072;51.918;4.380;2023-12-20T06:05:43;7.20;99.90
17893;DHT22;9072;51.918;4.380;2023-12-20T06:08:14;7.20;99.90
17893;DHT22;9072;51.918;4.380;2023-12-20T06:10:49;7.20;99.90
17893;DHT22;9072;51.918;4.380;2023-12-20T06:13:17;7.20;99.90
17893;DHT22;9072;51.918;4.380;2023-12-20T06:15:56;7.20;99.90
17893;DHT22;9072;51.918;4.380;2023-12-20T06:18:33;7.20;99.90
17893;DHT22;9072;51.918;4.380;2023-12-20T06:21:09;7.30;99.90
17893;DHT22;9072;51.918;4.380;2023-12-20T06:23:40;7.20;99.90
17893;DHT22;9072;51.918;4.380;2023-12-20T06:26:09;7.20;99.90
17893;DHT22;9072;51.918;4.380;2023-12-20T06:28:37;7.20;99.90
17893;DHT22;9072;51.918;4.380;2023-12-20T06:31:08;7.30;99.90
17893;DHT22;9072;51.918;4.380;2023-12-20T06:33:36;7.20;99.90
17893;DHT22;9072;51.918;4.380;2023-12-20T06:36:10;7.20;99.90
17893;DHT22;9072;51.918;4.380;2023-12-20T06:38:41;7.20;99.90
17893;DHT22;9072;51.918;4.380;2023-12-20T06:41:13;7.20;99.90
17893;DHT22;9072;51.918;4.380;2023-12-20T06:43:42;7.20;99.90
17893;DHT22;9072;51.918;4.380;2023-12-20T06:46:13;7.30;99.90
17893;DHT22;9072;51.918;4.380;2023-12-20T06:48:40;7.30;99.90
17893;DHT22;9072;51.918;4.380;2023-12-20T06:51:12;7.20;99.90
17893;DHT22;9072;51.918;4.380;2023-12-20T06:53:40;7.30;99.90
17893;DHT22;9072;51.918;4.380;2023-12-20T06:56:08;7.30;99.90
17893;DHT22;9072;51.918;4.380;2023-12-20T06:58:37;7.30;99.90
17893;DHT22;9072;51.918;4.380;2023-12-20T07:01:17;7.30;99.90
17893;DHT22;9072;51.918;4.380;2023-12-20T07:03:46;7.30;99.90
17893;DHT22;9072;51.918;4.380;2023-12-20T07:06:15;7.30;99.90
17893;DHT22;9072;51.918;4.380;2023-12-20T07:08:43;7.30;99.90
17893;DHT22;9072;51.918;4.380;2023-12-20T07:11:12;7.30;99.90
17893;DHT22;9072;51.918;4.380;2023-12-20T07:13:39;7.20;99.90
17893;DHT22;9072;51.918;4.380;2023-12-20T07:16:07;7.20;99.90
17893;DHT22;9072;51.918;4.380;2023-12-20T07:18:37;7.20;99.90
17893;DHT22;9072;51.918;4.380;2023-12-20T07:21:05;7.20;99.90
17893;DHT22;9072;51.918;4.380;2023-12-20T07:23:33;7.20;99.90
17893;DHT22;9072;51.918;4.380;2023-12-20T07:26:03;7.20;99.90
17893;DHT22;9072;51.918;4.380;2023-12-20T07:28:36;7.20;99.90
17893;DHT22;9072;51.918;4.380;2023-12-20T07:31:05;7.30;99.90
17893;DHT22;9072;51.918;4.380;2023-12-20T07:33:33;7.30;99.90
17893;DHT22;9072;51.918;4.380;2023-12-20T07:36:09;7.20;99.90
17893;DHT22;9072;51.918;4.380;2023-12-20T07:38:37;7.20;99.90
17893;DHT22;9072;51.918;4.380;2023-12-20T07:41:06;7.20;99.90
17893;DHT22;9072;51.918;4.380;2023-12-20T07:43:34;7.20;99.90
17893;DHT22;9072;51.918;4.380;2023-12-20T07:46:05;7.20;99.90
17893;DHT22;9072;51.918;4.380;2023-12-20T07:48:35;7.20;99.90
17893;DHT22;9072;51.918;4.380;2023-12-20T07:51:05;7.20;99.90
17893;DHT22;9072;51.918;4.380;2023-12-20T07:53:37;7.20;99.90
17893;DHT22;9072;51.918;4.380;2023-12-20T07:56:14;7.30;99.90
17893;DHT22;9072;51.918;4.380;2023-12-20T07:58:43;7.20;99.90
17893;DHT22;9072;51.918;4.380;2023-12-20T08:01:10;7.30;99.90
17893;DHT22;9072;51.918;4.380;2023-12-20T08:03:38;7.30;99.90
17893;DHT22;9072;51.918;4.380;2023-12-20T08:06:12;7.30;99.90
17893;DHT22;9072;51.918;4.380;2023-12-20T08:08:45;7.30;99.90
17893;DHT22;9072;51.918;4.380;2023-12-20T08:11:22;7.30;99.90
17893;DHT22;9072;51.918;4.380;2023-12-20T08:13:49;7.30;99.90
17893;DHT22;9072;51.918;4.380;2023-12-20T08:16:18;7.40;99.90
17893;DHT22;9072;51.918;4.380;2023-12-20T08:18:46;7.40;99.90
17893;DHT22;9072;51.918;4.380;2023-12-20T08:21:14;7.40;99.90
17893;DHT22;9072;51.918;4.380;2023-12-20T08:23:45;7.40;99.90
17893;DHT22;9072;51.918;4.380;2023-12-20T08:26:13;7.50;99.90
17893;DHT22;9072;51.918;4.380;2023-12-20T08:28:44;7.50;99.90
17893;DHT22;9072;51.918;4.380;2023-12-20T08:31:14;7.50;99.90
17893;DHT22;9072;51.918;4.380;2023-12-20T08:33:43;7.50;99.90
17893;DHT22;9072;51.918;4.380;2023-12-20T08:36:12;7.50;99.90
17893;DHT22;9072;51.918;4.380;2023-12-20T08:38:42;7.60;99.90
17893;DHT22;9072;51.918;4.380;2023-12-20T08:41:11;7.60;99.90
17893;DHT22;9072;51.918;4.380;2023-12-20T08:43:39;7.60;99.90
17893;DHT22;9072;51.918;4.380;2023-12-20T08:46:08;7.60;99.90
17893;DHT22;9072;51.918;4.380;2023-12-20T08:48:36;7.70;99.90
17893;DHT22;9072;51.918;4.380;2023-12-20T08:51:05;7.70;99.90
17893;DHT22;9072;51.918;4.380;2023-12-20T08:53:34;7.70;99.90
17893;DHT22;9072;51.918;4.380;2023-12-20T08:56:04;7.70;99.90
17893;DHT22;9072;51.918;4.380;2023-12-20T08:58:34;7.80;99.90
17893;DHT22;9072;51.918;4.380;2023-12-20T09:01:03;7.80;99.90
17893;DHT22;9072;51.918;4.380;2023-12-20T09:03:32;7.80;99.90
17893;DHT22;9072;51.918;4.380;2023-12-20T09:06:00;7.80;99.90
17893;DHT22;9072;51.918;4.380;2023-12-20T09:08:28;7.90;99.90
17893;DHT22;9072;51.918;4.380;2023-12-20T09:10:57;7.90;99.90
17893;DHT22;9072;51.918;4.380;2023-12-20T09:13:26;7.90;99.90
17893;DHT22;9072;51.918;4.380;2023-12-20T09:16:03;8.00;99.90
17893;DHT22;9072;51.918;4.380;2023-12-20T09:18:31;8.10;99.90
17893;DHT22;9072;51.918;4.380;2023-12-20T09:20:59;8.20;99.90
17893;DHT22;9072;51.918;4.380;2023-12-20T09:23:27;8.20;99.90
17893;DHT22;9072;51.918;4.380;2023-12-20T09:25:55;8.30;99.90
17893;DHT22;9072;51.918;4.380;2023-12-20T09:28:25;8.30;99.90
17893;DHT22;9072;51.918;4.380;2023-12-20T09:31:02;8.30;99.90
17893;DHT22;9072;51.918;4.380;2023-12-20T09:33:30;8.40;99.90
17893;DHT22;9072;51.918;4.380;2023-12-20T09:35:59;8.40;99.90
17893;DHT22;9072;51.918;4.380;2023-12-20T09:38:30;8.50;99.90
17893;DHT22;9072;51.918;4.380;2023-12-20T09:40:58;8.50;99.90
17893;DHT22;9072;51.918;4.380;2023-12-20T09:43:30;8.50;99.90
17893;DHT22;9072;51.918;4.380;2023-12-20T09:46:00;8.50;99.90
17893;DHT22;9072;51.918;4.380;2023-12-20T09:48:30;8.50;99.90
17893;DHT22;9072;51.918;4.380;2023-12-20T09:50:58;8.60;99.90
17893;DHT22;9072;51.918;4.380;2023-12-20T09:53:25;8.60;99.90
17893;DHT22;9072;51.918;4.380;2023-12-20T09:55:58;8.70;99.90
17893;DHT22;9072;51.918;4.380;2023-12-20T09:58:26;8.70;99.90
17893;DHT22;9072;51.918;4.380;2023-12-20T10:00:53;8.70;99.90
17893;DHT22;9072;51.918;4.380;2023-12-20T10:03:25;8.80;99.90
17893;DHT22;9072;51.918;4.380;2023-12-20T10:05:54;8.70;99.90
17893;DHT22;9072;51.918;4.380;2023-12-20T10:08:24;8.70;99.90
17893;DHT22;9072;51.918;4.380;2023-12-20T10:10:51;8.80;99.90
17893;DHT22;9072;51.918;4.380;2023-12-20T10:13:18;8.80;99.90
17893;DHT22;9072;51.918;4.380;2023-12-20T10:15:46;8.80;99.90
17893;DHT22;9072;51.918;4.380;2023-12-20T10:18:13;8.80;99.90
17893;DHT22;9072;51.918;4.380;2023-12-20T10:20:42;8.80;99.90
17893;DHT22;9072;51.918;4.380;2023-12-20T10:23:09;8.80;99.90
17893;DHT22;9072;51.918;4.380;2023-12-20T10:25:37;8.90;99.90
17893;DHT22;9072;51.918;4.380;2023-12-20T10:28:12;8.90;99.90
17893;DHT22;9072;51.918;4.380;2023-12-20T10:30:40;8.90;99.90
17893;DHT22;9072;51.918;4.380;2023-12-20T10:33:07;8.90;99.90
17893;DHT22;9072;51.918;4.380;2023-12-20T10:35:35;8.90;99.90
17893;DHT22;9072;51.918;4.380;2023-12-20T10:38:06;8.90;99.90
17893;DHT22;9072;51.918;4.380;2023-12-20T10:40:35;8.90;99.90
17893;DHT22;9072;51.918;4.380;2023-12-20T10:43:07;8.90;99.90
17893;DHT22;9072;51.918;4.380;2023-12-20T10:45:36;9.00;99.90
17893;DHT22;9072;51.918;4.380;2023-12-20T10:48:04;9.00;99.90
17893;DHT22;9072;51.918;4.380;2023-12-20T10:50:32;9.00;99.90
17893;DHT22;9072;51.918;4.380;2023-12-20T10:52:59;9.00;99.90
17893;DHT22;9072;51.918;4.380;2023-12-20T10:55:31;9.10;99.90
17893;DHT22;9072;51.918;4.380;2023-12-20T10:58:01;9.10;99.90
17893;DHT22;9072;51.918;4.380;2023-12-20T11:00:31;9.20;99.90
17893;DHT22;9072;51.918;4.380;2023-12-20T11:03:00;9.30;99.90
17893;DHT22;9072;51.918;4.380;2023-12-20T11:05:36;9.40;99.90
17893;DHT22;9072;51.918;4.380;2023-12-20T11:08:16;9.50;99.90
17893;DHT22;9072;51.918;4.380;2023-12-20T11:10:56;9.50;99.90
17893;DHT22;9072;51.918;4.380;2023-12-20T11:13:31;9.50;99.90
17893;DHT22;9072;51.918;4.380;2023-12-20T11:15:59;9.60;99.90
17893;DHT22;9072;51.918;4.380;2023-12-20T11:18:30;9.50;99.90
17893;DHT22;9072;51.918;4.380;2023-12-20T11:21:01;9.60;99.90
17893;DHT22;9072;51.918;4.380;2023-12-20T11:23:30;9.70;99.90
17893;DHT22;9072;51.918;4.380;2023-12-20T11:26:08;9.70;99.90
17893;DHT22;9072;51.918;4.380;2023-12-20T11:28:46;9.80;99.90
17893;DHT22;9072;51.918;4.380;2023-12-20T11:31:14;9.80;99.90
17893;DHT22;9072;51.918;4.380;2023-12-20T11:33:45;9.70;99.90
17893;DHT22;9072;51.918;4.380;2023-12-20T11:36:18;9.80;99.90
17893;DHT22;9072;51.918;4.380;2023-12-20T11:38:55;9.80;99.90
17893;DHT22;9072;51.918;4.380;2023-12-20T11:41:25;9.80;99.90
17893;DHT22;9072;51.918;4.380;2023-12-20T11:43:57;9.80;99.90
17893;DHT22;9072;51.918;4.380;2023-12-20T11:46:29;9.80;99.90
17893;DHT22;9072;51.918;4.380;2023-12-20T11:48:56;9.70;99.90
17893;DHT22;9072;51.918;4.380;2023-12-20T11:51:24;9.70;99.90
17893;DHT22;9072;51.918;4.380;2023-12-20T11:53:51;9.70;99.90
17893;DHT22;9072;51.918;4.380;2023-12-20T11:56:22;9.70;99.90
17893;DHT22;9072;51.918;4.380;2023-12-20T11:58:56;9.70;99.90
17893;DHT22;9072;51.918;4.380;2023-12-20T12:01:28;9.70;99.90
17893;DHT22;9072;51.918;4.380;2023-12-20T12:04:12;9.70;99.90
17893;DHT22;9072;51.918;4.380;2023-12-20T12:06:41;9.70;99.90
17893;DHT22;9072;51.918;4.380;2023-12-20T12:09:17;9.70;99.90
17893;DHT22;9072;51.918;4.380;2023-12-20T12:11:45;9.70;99.90
17893;DHT22;9072;51.918;4.380;2023-12-20T12:14:25;9.80;99.90
17893;DHT22;9072;51.918;4.380;2023-12-20T12:17:03;9.80;99.90
17893;DHT22;9072;51.918;4.380;2023-12-20T12:19:38;9.80;99.90
17893;DHT22;9072;51.918;4.380;2023-12-20T12:22:14;9.80;99.90
17893;DHT22;9072;51.918;4.380;2023-12-20T12:24:47;9.80;99.90
17893;DHT22;9072;51.918;4.380;2023-12-20T12:27:15;9.80;99.90
17893;DHT22;9072;51.918;4.380;2023-12-20T12:30:05;9.80;99.90
17893;DHT22;9072;51.918;4.380;2023-12-20T12:32:45;9.80;99.90
17893;DHT22;9072;51.918;4.380;2023-12-20T12:35:21;9.80;99.90
17893;DHT22;9072;51.918;4.380;2023-12-20T12:37:49;9.80;99.90
17893;DHT22;9072;51.918;4.380;2023-12-20T12:40:25;9.80;99.90
17893;DHT22;9072;51.918;4.380;2023-12-20T12:42:52;9.70;99.90
17893;DHT22;9072;51.918;4.380;2023-12-20T12:45:21;9.70;99.90
17893;DHT22;9072;51.918;4.380;2023-12-20T12:47:50;9.70;99.90
17893;DHT22;9072;51.918;4.380;2023-12-20T12:50:24;9.70;99.90
17893;DHT22;9072;51.918;4.380;2023-12-20T12:52:59;9.70;99.90
17893;DHT22;9072;51.918;4.380;2023-12-20T12:55:30;9.60;99.90
17893;DHT22;9072;51.918;4.380;2023-12-20T12:57:57;9.60;99.90
17893;DHT22;9072;51.918;4.380;2023-12-20T13:00:29;9.60;99.90
17893;DHT22;9072;51.918;4.380;2023-12-20T13:02:56;9.60;99.90
17893;DHT22;9072;51.918;4.380;2023-12-20T13:05:28;9.60;99.90
17893;DHT22;9072;51.918;4.380;2023-12-20T13:07:57;9.60;99.90
17893;DHT22;9072;51.918;4.380;2023-12-20T13:10:31;9.60;99.90
17893;DHT22;9072;51.918;4.380;2023-12-20T13:12:59;9.60;99.90
17893;DHT22;9072;51.918;4.380;2023-12-20T13:15:32;9.50;99.90
17893;DHT22;9072;51.918;4.380;2023-12-20T13:18:06;9.50;99.90
17893;DHT22;9072;51.918;4.380;2023-12-20T13:20:36;9.60;99.90
17893;DHT22;9072;51.918;4.380;2023-12-20T13:23:06;9.60;99.90
17893;DHT22;9072;51.918;4.380;2023-12-20T13:25:34;9.60;99.90
17893;DHT22;9072;51.918;4.380;2023-12-20T13:28:05;9.60;99.90
17893;DHT22;9072;51.918;4.380;2023-12-20T13:30:39;9.60;99.90
17893;DHT22;9072;51.918;4.380;2023-12-20T13:33:07;9.60;99.90
17893;DHT22;9072;51.918;4.380;2023-12-20T13:35:36;9.50;99.90
17893;DHT22;9072;51.918;4.380;2023-12-20T13:38:03;9.50;99.90
17893;DHT22;9072;51.918;4.380;2023-12-20T13:40:31;9.50;99.90
17893;DHT22;9072;51.918;4.380;2023-12-20T13:43:01;9.50;99.90
17893;DHT22;9072;51.918;4.380;2023-12-20T13:45:30;9.50;99.90
17893;DHT22;9072;51.918;4.380;2023-12-20T13:47:59;9.50;99.90
17893;DHT22;9072;51.918;4.380;2023-12-20T13:50:27;9.50;99.90
17893;DHT22;9072;51.918;4.380;2023-12-20T13:53:08;9.50;99.90
17893;DHT22;9072;51.918;4.380;2023-12-20T13:55:49;9.50;99.90
17893;DHT22;9072;51.918;4.380;2023-12-20T13:58:17;9.50;99.90
17893;DHT22;9072;51.918;4.380;2023-12-20T14:00:45;9.40;99.90
17893;DHT22;9072;51.918;4.380;2023-12-20T14:03:15;9.40;99.90
17893;DHT22;9072;51.918;4.380;2023-12-20T14:05:42;9.40;99.90
17893;DHT22;9072;51.918;4.380;2023-12-20T14:08:09;9.40;99.90
17893;DHT22;9072;51.918;4.380;2023-12-20T14:10:36;9.40;99.90
17893;DHT22;9072;51.918;4.380;2023-12-20T14:13:05;9.40;99.90
17893;DHT22;9072;51.918;4.380;2023-12-20T14:15:32;9.40;99.90
17893;DHT22;9072;51.918;4.380;2023-12-20T14:18:04;9.40;99.90
17893;DHT22;9072;51.918;4.380;2023-12-20T14:20:35;9.40;99.90
17893;DHT22;9072;51.918;4.380;2023-12-20T14:23:05;9.30;99.90
17893;DHT22;9072;51.918;4.380;2023-12-20T14:25:32;9.30;99.90
17893;DHT22;9072;51.918;4.380;2023-12-20T14:28:00;9.30;99.90
17893;DHT22;9072;51.918;4.380;2023-12-20T14:30:27;9.30;99.90
17893;DHT22;9072;51.918;4.380;2023-12-20T14:32:54;9.30;99.90
17893;DHT22;9072;51.918;4.380;2023-12-20T14:35:21;9.30;99.90
17893;DHT22;9072;51.918;4.380;2023-12-20T14:37:53;9.30;99.90
17893;DHT22;9072;51.918;4.380;2023-12-20T14:40:20;9.30;99.90
17893;DHT22;9072;51.918;4.380;2023-12-20T14:42:48;9.30;99.90
17893;DHT22;9072;51.918;4.380;2023-12-20T14:45:16;9.30;99.90
17893;DHT22;9072;51.918;4.380;2023-12-20T14:47:43;9.30;99.90
17893;DHT22;9072;51.918;4.380;2023-12-20T14:50:12;9.20;99.90
17893;DHT22;9072;51.918;4.380;2023-12-20T14:52:44;9.30;99.90
17893;DHT22;9072;51.918;4.380;2023-12-20T14:55:16;9.20;99.90
17893;DHT22;9072;51.918;4.380;2023-12-20T14:57:50;9.20;99.90
17893;DHT22;9072;51.918;4.380;2023-12-20T15:00:30;9.20;99.90
17893;DHT22;9072;51.918;4.380;2023-12-20T15:03:11;9.20;99.90
17893;DHT22;9072;51.918;4.380;2023-12-20T15:05:44;9.20;99.90
17893;DHT22;9072;51.918;4.380;2023-12-20T15:08:13;9.20;99.90
17893;DHT22;9072;51.918;4.380;2023-12-20T15:10:42;9.20;99.90
17893;DHT22;9072;51.918;4.380;2023-12-20T15:13:09;9.20;99.90
17893;DHT22;9072;51.918;4.380;2023-12-20T15:15:38;9.20;99.90
17893;DHT22;9072;51.918;4.380;2023-12-20T15:18:05;9.20;99.90
17893;DHT22;9072;51.918;4.380;2023-12-20T15:20:33;9.20;99.90
17893;DHT22;9072;51.918;4.380;2023-12-20T15:23:04;9.20;99.90
17893;DHT22;9072;51.918;4.380;2023-12-20T15:25:37;9.20;99.90
17893;DHT22;9072;51.918;4.380;2023-12-20T15:28:11;9.10;99.90
17893;DHT22;9072;51.918;4.380;2023-12-20T15:30:46;9.10;99.90
17893;DHT22;9072;51.918;4.380;2023-12-20T15:33:14;9.10;99.90
17893;DHT22;9072;51.918;4.380;2023-12-20T15:35:41;9.10;99.90
17893;DHT22;9072;51.918;4.380;2023-12-20T15:38:08;9.00;99.90
17893;DHT22;9072;51.918;4.380;2023-12-20T15:40:37;9.00;99.90
17893;DHT22;9072;51.918;4.380;2023-12-20T15:43:12;9.00;99.90
17893;DHT22;9072;51.918;4.380;2023-12-20T15:45:39;9.00;99.90
17893;DHT22;9072;51.918;4.380;2023-12-20T15:48:07;9.00;99.90
17893;DHT22;9072;51.918;4.380;2023-12-20T15:50:37;9.00;99.90
17893;DHT22;9072;51.918;4.380;2023-12-20T15:53:04;8.90;99.90
17893;DHT22;9072;51.918;4.380;2023-12-20T15:55:31;8.90;99.90
17893;DHT22;9072;51.918;4.380;2023-12-20T15:57:58;8.90;99.90
17893;DHT22;9072;51.918;4.380;2023-12-20T16:00:30;8.90;99.90
17893;DHT22;9072;51.918;4.380;2023-12-20T16:02:59;8.80;99.90
17893;DHT22;9072;51.918;4.380;2023-12-20T16:05:29;8.90;99.90
17893;DHT22;9072;51.918;4.380;2023-12-20T16:08:00;8.90;99.90
17893;DHT22;9072;51.918;4.380;2023-12-20T16:10:28;8.90;99.90
17893;DHT22;9072;51.918;4.380;2023-12-20T16:12:57;8.80;99.90
17893;DHT22;9072;51.918;4.380;2023-12-20T16:15:27;8.80;99.90
17893;DHT22;9072;51.918;4.380;2023-12-20T16:17:57;8.80;99.90
17893;DHT22;9072;51.918;4.380;2023-12-20T16:20:28;8.80;99.90
17893;DHT22;9072;51.918;4.380;2023-12-20T16:22:58;8.80;99.90
17893;DHT22;9072;51.918;4.380;2023-12-20T16:25:27;8.80;99.90
17893;DHT22;9072;51.918;4.380;2023-12-20T16:27:56;8.80;99.90
17893;DHT22;9072;51.918;4.380;2023-12-20T16:30:28;8.80;99.90
17893;DHT22;9072;51.918;4.380;2023-12-20T16:32:57;8.80;99.90
17893;DHT22;9072;51.918;4.380;2023-12-20T16:35:25;8.70;99.90
17893;DHT22;9072;51.918;4.380;2023-12-20T16:37:52;8.70;99.90
17893;DHT22;9072;51.918;4.380;2023-12-20T16:40:20;8.70;99.90
17893;DHT22;9072;51.918;4.380;2023-12-20T16:42:50;8.70;99.90
17893;DHT22;9072;51.918;4.380;2023-12-20T16:45:21;8.60;99.90
17893;DHT22;9072;51.918;4.380;2023-12-20T16:47:48;8.60;99.90
17893;DHT22;9072;51.918;4.380;2023-12-20T16:50:17;8.60;99.90
17893;DHT22;9072;51.918;4.380;2023-12-20T16:52:45;8.60;99.90